Time;durP1;ratioP1;P1;durP2;ratioP2;P2;SDS_P1;SDS_P2;PMS_P1;PMS_P2;Temp;Humidity;BMP_temperature;BMP_pressure;BME280_temperature;BME280_humidity;BME280_pressure;Samples;Min_cycle;Max_cycle;Signal;HPM_P1;HPM_P2
2022/09/22 00:01:03;;;;;;;6.30;4.87;;;;;;;7.84;80.69;102419.16;5075425;28;20032;-88
2022/09/22 00:03:33;;;;;;;6.28;4.43;;;;;;;7.82;80.68;102415.72;5076483;28;20040;-87
2022/09/22 00:06:01;;;;;;;6.05;4.50;;;;;;;7.78;80.80;102417.31;5076366;28;20472;-88
2022/09/22 00:08:29;;;;;;;6.20;4.45;;;;;;;7.77;80.94;102409.56;5075606;28;20025;-88
2022/09/22 00:11:17;;;;;;;6.90;4.68;;;;;;;7.73;81.01;102409.47;5076191;28;20048;-88
2022/09/22 00:13:49;;;;;;;6.15;4.43;;;;;;;7.73;80.67;102412.06;5075607;28;20112;-87
2022/09/22 00:16:16;;;;;;;6.00;4.40;;;;;;;7.73;80.83;102411.19;5076025;28;20413;-87
2022/09/22 00:18:42;;;;;;;6.65;4.30;;;;;;;7.70;81.04;102409.44;5076104;28;20032;-88
2022/09/22 00:21:13;;;;;;;6.00;4.60;;;;;;;7.67;81.06;102404.19;5075638;28;20460;-88
2022/09/22 00:23:39;;;;;;;7.10;4.68;;;;;;;7.67;80.99;102414.53;5075943;28;20078;-88
2022/09/22 00:26:09;;;;;;;5.63;4.57;;;;;;;7.66;80.98;102407.59;5075966;28;20029;-88
2022/09/22 00:28:35;;;;;;;6.28;4.55;;;;;;;7.63;81.13;102409.25;5075368;28;20286;-88
2022/09/22 00:31:05;;;;;;;7.40;4.55;;;;;;;7.61;80.86;102408.34;5075880;28;20025;-88
2022/09/22 00:33:31;;;;;;;6.95;4.40;;;;;;;7.56;81.24;102410.81;5075971;28;20033;-88
2022/09/22 00:35:58;;;;;;;7.10;4.57;;;;;;;7.55;81.05;102414.25;5075129;28;20465;-88
2022/09/22 00:38:23;;;;;;;6.88;4.50;;;;;;;7.53;81.23;102415.91;5075772;28;20036;-88
2022/09/22 00:40:48;;;;;;;6.53;4.68;;;;;;;7.50;81.17;102406.41;5075810;28;20020;-88
2022/09/22 00:43:19;;;;;;;7.65;4.80;;;;;;;7.47;81.19;102415.78;5074680;28;20058;-88
2022/09/22 00:45:49;;;;;;;7.32;5.20;;;;;;;7.46;81.30;102414.03;5075783;28;20020;-87
2022/09/22 00:48:18;;;;;;;6.25;4.50;;;;;;;7.45;81.43;102407.13;5075561;28;20067;-88
2022/09/22 00:50:44;;;;;;;7.43;4.85;;;;;;;7.39;81.37;102403.56;5074602;28;20031;-88
2022/09/22 00:53:13;;;;;;;8.25;5.10;;;;;;;7.39;81.51;102410.44;5075187;28;20049;-88
2022/09/22 00:55:47;;;;;;;5.90;4.63;;;;;;;7.37;81.32;102404.38;5074963;28;20520;-88
2022/09/22 00:58:15;;;;;;;6.80;4.90;;;;;;;7.35;81.30;102406.03;5074571;28;20024;-88
2022/09/22 01:00:41;;;;;;;6.57;5.00;;;;;;;7.33;81.71;102399.94;5075460;28;20465;-88
2022/09/22 01:03:11;;;;;;;9.18;5.38;;;;;;;7.32;81.78;102387.91;5074599;28;20042;-87
2022/09/22 01:05:38;;;;;;;7.28;5.07;;;;;;;7.31;81.74;102386.16;5074988;28;20024;-87
2022/09/22 01:08:03;;;;;;;8.75;5.40;;;;;;;7.30;81.59;102384.41;5075145;28;20021;-88
2022/09/22 01:10:29;;;;;;;6.63;4.93;;;;;;;7.26;81.55;102376.59;5073849;28;20025;-88
2022/09/22 01:13:16;;;;;;;6.75;4.93;;;;;;;7.30;81.74;102376.66;5075074;28;20017;-88
2022/09/22 01:16:20;;;;;;;7.68;5.00;;;;;;;7.30;81.71;102379.25;5074987;28;20035;-88
2022/09/22 01:19:15;;;;;;;6.32;4.65;;;;;;;7.28;81.72;102380.91;4993053;28;20038;-88
2022/09/22 01:21:56;;;;;;;7.85;4.93;;;;;;;7.24;81.58;102380.84;5074267;28;20041;-87
2022/09/22 01:24:52;;;;;;;6.18;4.57;;;;;;;7.22;81.85;102377.34;5074106;28;20036;-87
2022/09/22 01:27:40;;;;;;;7.57;4.78;;;;;;;7.20;81.91;102373.88;5074431;28;20035;-88
2022/09/22 01:30:18;;;;;;;7.32;5.07;;;;;;;7.21;81.52;102369.56;5074755;28;20024;-87
2022/09/22 01:33:15;;;;;;;7.60;5.20;;;;;;;7.17;81.80;102373.78;5073871;28;20028;-88
2022/09/22 01:36:18;;;;;;;7.38;5.15;;;;;;;7.14;81.88;102373.72;5033938;28;20051;-87
2022/09/22 01:38:54;;;;;;;6.90;4.78;;;;;;;7.08;81.97;102365.84;4992132;28;20031;-87
2022/09/22 01:41:50;;;;;;;8.35;5.32;;;;;;;7.05;82.03;102370.91;4993156;28;20031;-88
2022/09/22 01:45:04;;;;;;;6.88;4.75;;;;;;;6.99;81.96;102363.00;5053376;28;20033;-87
2022/09/22 01:47:39;;;;;;;7.88;5.28;;;;;;;6.98;82.03;102361.28;5064928;28;20111;-87
2022/09/22 01:50:12;;;;;;;8.45;5.10;;;;;;;6.95;82.23;102362.97;5074295;28;20354;-87
2022/09/22 01:52:40;;;;;;;8.07;5.00;;;;;;;6.92;82.10;102352.53;5066233;28;20057;-87
2022/09/22 01:55:11;;;;;;;7.13;4.88;;;;;;;6.91;82.11;102358.53;5054168;28;20040;-87
2022/09/22 01:57:55;;;;;;;6.63;4.95;;;;;;;6.90;82.33;102359.38;5053975;28;20026;-87
2022/09/22 02:00:22;;;;;;;7.97;5.28;;;;;;;6.88;82.04;102349.84;5053241;28;20107;-87
2022/09/22 02:03:13;;;;;;;;;;;;;;;6.87;82.17;102348.09;5054544;28;20028;-87
2022/09/22 02:05:51;;;;;;;8.43;5.40;;;;;;;6.85;82.41;102345.50;5051723;28;20046;-87
2022/09/22 02:08:22;;;;;;;7.80;5.53;;;;;;;6.83;82.12;102339.44;5052755;28;20056;-87
2022/09/22 02:10:49;;;;;;;7.50;5.10;;;;;;;6.83;82.38;102346.28;5053793;28;20039;-87
2022/09/22 02:13:14;;;;;;;8.40;5.03;;;;;;;6.81;82.38;102343.66;5053410;28;20087;-87
2022/09/22 02:15:59;;;;;;;7.60;5.15;;;;;;;6.78;82.37;102343.59;5053702;28;20025;-87
2022/09/22 02:18:38;;;;;;;7.72;5.05;;;;;;;6.74;82.41;102337.47;5053294;28;20021;-87
2022/09/22 02:21:04;;;;;;;7.90;4.95;;;;;;;6.73;82.28;102342.63;5052903;28;20474;-87
2022/09/22 02:23:31;;;;;;;7.90;5.50;;;;;;;6.72;82.42;102333.13;5053898;28;20028;-87
2022/09/22 02:25:57;;;;;;;7.55;5.30;;;;;;;6.70;82.66;102338.22;5053784;28;20021;-88
2022/09/22 02:28:24;;;;;;;8.20;5.33;;;;;;;6.70;82.67;102334.78;5052637;28;20035;-87
2022/09/22 02:30:51;;;;;;;;;;;;;;;6.69;82.71;102339.09;5054301;28;20112;-87
2022/09/22 02:33:19;;;;;;;9.73;5.50;;;;;;;6.63;82.69;102332.06;5053556;28;19932;-87
2022/09/22 02:35:47;;;;;;;8.27;5.63;;;;;;;6.63;82.53;102329.50;5052723;28;20470;-86
2022/09/22 02:38:18;;;;;;;8.85;5.47;;;;;;;6.61;82.69;102331.16;5053621;28;20075;-87
2022/09/22 02:40:51;;;;;;;7.40;5.50;;;;;;;6.60;82.87;102326.81;5053294;28;20462;-87
2022/09/22 02:43:41;;;;;;;8.52;5.50;;;;;;;6.58;82.70;102320.75;5052347;28;20481;-87
2022/09/22 02:46:32;;;;;;;7.93;5.03;;;;;;;6.56;82.66;102316.41;5053645;28;20053;-87
2022/09/22 02:49:05;;;;;;;6.68;4.95;;;;;;;6.53;82.82;102312.00;5052684;28;20066;-87
2022/09/22 02:51:31;;;;;;;7.22;5.00;;;;;;;6.52;82.81;102317.13;5053428;28;20103;-87
2022/09/22 02:53:57;;;;;;;8.40;5.20;;;;;;;6.46;82.98;102304.97;5052875;28;20095;-87
2022/09/22 02:56:22;;;;;;;6.60;4.80;;;;;;;6.48;82.93;102319.63;5052549;28;20033;-87
2022/09/22 02:58:48;;;;;;;7.97;5.22;;;;;;;6.45;82.92;102314.44;5053123;28;20024;-87
2022/09/22 03:01:13;;;;;;;7.30;4.70;;;;;;;6.43;83.08;102310.03;5053264;28;20108;-87
2022/09/22 03:03:39;;;;;;;8.18;5.15;;;;;;;6.42;83.07;102309.19;5052419;28;20025;-87
2022/09/22 03:06:04;;;;;;;7.45;4.82;;;;;;;6.39;83.10;102303.94;5053485;28;20029;-87
2022/09/22 03:08:30;;;;;;;7.40;5.13;;;;;;;6.38;82.86;102306.47;5053238;28;20128;-87
2022/09/22 03:10:55;;;;;;;6.85;4.82;;;;;;;6.36;83.18;102310.72;5052300;28;20029;-87
2022/09/22 03:13:20;;;;;;;7.22;4.80;;;;;;;6.33;83.25;102302.06;5053271;28;20025;-87
2022/09/22 03:15:46;;;;;;;7.30;4.70;;;;;;;6.30;83.03;102307.16;5053084;28;20118;-87
2022/09/22 03:18:12;;;;;;;8.90;5.00;;;;;;;6.29;82.97;102296.78;5052381;28;20017;-87
2022/09/22 03:20:37;;;;;;;6.30;4.50;;;;;;;6.28;83.09;102305.38;5053274;28;20152;-87
2022/09/22 03:23:03;;;;;;;7.25;5.03;;;;;;;6.25;83.30;102306.16;5053129;28;20473;-87
2022/09/22 03:25:28;;;;;;;7.72;5.00;;;;;;;6.24;83.31;102298.41;5052361;28;20108;-87
2022/09/22 03:27:53;;;;;;;7.28;5.05;;;;;;;6.22;83.46;102295.75;5053083;28;20035;-87
2022/09/22 03:30:19;;;;;;;6.32;4.70;;;;;;;6.22;83.12;102292.31;5056301;28;20048;-87
2022/09/22 03:32:44;;;;;;;6.40;4.88;;;;;;;6.20;83.38;102286.25;5056013;28;20053;-87
2022/09/22 03:35:09;;;;;;;7.40;4.85;;;;;;;6.19;83.40;102290.56;5056583;28;20104;-87
2022/09/22 03:37:35;;;;;;;7.22;4.93;;;;;;;6.17;83.41;102287.06;5056392;28;20381;-87
2022/09/22 03:40:01;;;;;;;7.38;5.13;;;;;;;6.16;83.50;102291.31;5055661;28;20071;-87
2022/09/22 03:42:26;;;;;;;7.07;4.90;;;;;;;6.13;83.63;102292.94;5056449;28;20024;-87
2022/09/22 03:44:51;;;;;;;7.32;5.07;;;;;;;6.11;83.53;102285.19;5055969;28;20021;-87
2022/09/22 03:47:18;;;;;;;6.85;4.90;;;;;;;6.11;83.56;102290.34;5056479;28;20540;-87
2022/09/22 03:49:43;;;;;;;6.20;4.35;;;;;;;6.07;83.58;102291.06;5056443;28;20029;-87
2022/09/22 03:52:08;;;;;;;6.57;4.75;;;;;;;6.08;83.49;102289.41;5055368;28;20445;-87
2022/09/22 03:54:35;;;;;;;7.50;4.90;;;;;;;6.07;83.66;102287.66;5056469;28;20032;-87
2022/09/22 03:57:01;;;;;;;;;;;;;;;6.07;83.71;102287.66;5056907;28;20188;-87
2022/09/22 03:59:26;;;;;;;9.13;5.50;;;;;;;6.05;83.55;102279.00;5055362;28;20012;-87
2022/09/22 04:01:51;;;;;;;8.57;5.05;;;;;;;6.03;83.63;102289.25;5055875;28;20021;-87
2022/09/22 04:04:17;;;;;;;8.45;5.30;;;;;;;6.00;83.54;102284.88;5055968;28;20083;-87
2022/09/22 04:06:42;;;;;;;9.18;5.40;;;;;;;5.99;83.58;102288.28;5055268;28;20036;-86
2022/09/22 04:09:08;;;;;;;7.85;5.25;;;;;;;5.97;83.54;102282.19;5056007;28;20021;-87
2022/09/22 04:11:34;;;;;;;7.93;5.18;;;;;;;5.97;83.85;102279.59;5056089;28;20017;-87
2022/09/22 04:14:00;;;;;;;7.82;5.10;;;;;;;5.95;83.59;102277.81;5054844;28;20029;-86
2022/09/22 04:16:26;;;;;;;7.32;4.97;;;;;;;5.93;83.75;102277.78;5055844;28;20055;-87
2022/09/22 04:18:52;;;;;;;7.35;4.95;;;;;;;5.95;83.63;102275.25;5056032;28;20025;-86
2022/09/22 04:21:17;;;;;;;7.65;5.00;;;;;;;5.95;83.72;102272.69;5054545;28;20492;-86
2022/09/22 04:23:42;;;;;;;8.18;5.03;;;;;;;5.94;83.83;102265.78;5055415;28;20032;-86
2022/09/22 04:26:07;;;;;;;7.57;4.95;;;;;;;5.93;83.43;102275.22;5055631;28;20048;-86
2022/09/22 04:28:33;;;;;;;6.03;4.50;;;;;;;5.90;83.60;102276.84;5055028;28;20528;-86
2022/09/22 04:30:58;;;;;;;7.18;4.93;;;;;;;5.86;83.90;102266.44;5055789;28;20021;-87
2022/09/22 04:33:24;;;;;;;7.05;4.93;;;;;;;5.87;83.88;102277.63;5055281;28;20363;-86
2022/09/22 04:35:50;;;;;;;7.43;5.00;;;;;;;5.88;83.88;102274.22;5054434;28;20037;-86
2022/09/22 04:38:16;;;;;;;9.00;5.40;;;;;;;5.88;83.83;102269.94;5055155;28;20043;-86
2022/09/22 04:40:42;;;;;;;9.18;5.70;;;;;;;5.86;83.74;102269.03;5054364;28;20028;-86
2022/09/22 04:43:08;;;;;;;7.30;4.97;;;;;;;5.86;83.85;102268.13;5054286;28;20547;-86
2022/09/22 04:45:33;;;;;;;7.97;5.03;;;;;;;5.85;83.97;102269.84;5055036;28;20037;-85
2022/09/22 04:47:58;;;;;;;7.38;5.25;;;;;;;5.86;83.99;102265.56;5054840;28;20024;-86
2022/09/22 04:50:24;;;;;;;8.75;5.20;;;;;;;5.87;83.80;102269.88;5054865;28;20045;-86
2022/09/22 04:52:52;;;;;;;8.40;5.50;;;;;;;5.86;83.97;102274.19;5054653;28;20458;-86
2022/09/22 04:55:19;;;;;;;7.55;5.22;;;;;;;5.84;83.97;102270.69;5054285;28;20385;-86
2022/09/22 04:57:49;;;;;;;7.97;5.22;;;;;;;5.83;83.97;102268.06;5054666;28;20104;-85
2022/09/22 05:00:15;;;;;;;7.88;5.10;;;;;;;5.81;83.81;102269.72;5054678;28;20049;-86
2022/09/22 05:02:40;;;;;;;7.10;4.90;;;;;;;5.78;84.29;102265.38;5054188;28;20362;-86
2022/09/22 05:05:24;;;;;;;7.65;4.88;;;;;;;5.78;83.98;102269.63;5054410;28;20032;-87
2022/09/22 05:07:53;;;;;;;7.40;5.10;;;;;;;5.74;84.18;102270.41;5055046;28;20029;-87
2022/09/22 05:10:21;;;;;;;7.68;5.25;;;;;;;5.72;83.97;102262.63;5054035;28;20024;-86
2022/09/22 05:12:47;;;;;;;7.40;4.88;;;;;;;5.73;84.41;102264.38;5054693;28;20017;-86
2022/09/22 05:15:22;;;;;;;7.15;4.93;;;;;;;5.72;84.15;102262.63;5054158;28;20108;-87
2022/09/22 05:17:52;;;;;;;7.90;4.97;;;;;;;5.72;84.20;102270.34;5053524;28;20131;-86
2022/09/22 05:20:19;;;;;;;8.38;5.00;;;;;;;5.70;84.13;102275.47;5054525;28;20523;-86
2022/09/22 05:22:46;;;;;;;8.15;4.90;;;;;;;5.68;84.09;102277.13;5054598;28;20377;-87
2022/09/22 05:25:15;;;;;;;9.55;5.50;;;;;;;5.66;84.05;102271.03;5053768;28;20021;-87
2022/09/22 05:27:49;;;;;;;8.05;5.00;;;;;;;5.64;84.37;102271.84;5054322;28;20064;-86
2022/09/22 05:30:15;;;;;;;7.55;4.78;;;;;;;5.63;84.16;102280.38;5053565;28;20068;-85
2022/09/22 05:32:43;;;;;;;8.10;5.30;;;;;;;5.60;84.14;102275.16;5054160;28;20507;-87
2022/09/22 05:35:09;;;;;;;7.30;5.00;;;;;;;5.56;84.18;102275.09;5054291;28;20021;-87
2022/09/22 05:37:34;;;;;;;6.30;4.60;;;;;;;5.56;84.31;102284.50;5053370;28;20116;-86
2022/09/22 05:40:00;;;;;;;6.55;4.70;;;;;;;5.57;84.39;102281.09;5054223;28;20041;-86
2022/09/22 05:42:25;;;;;;;6.47;4.40;;;;;;;5.56;84.75;102280.22;5053764;28;20039;-86
2022/09/22 05:44:50;;;;;;;7.80;4.70;;;;;;;5.57;84.14;102281.94;5052933;28;20075;-86
2022/09/22 05:47:16;;;;;;;7.13;4.80;;;;;;;5.57;84.33;102281.94;5054106;28;20021;-86
2022/09/22 05:49:41;;;;;;;8.23;5.57;;;;;;;5.57;84.22;102283.66;5053911;28;20103;-86
2022/09/22 05:52:06;;;;;;;7.22;4.72;;;;;;;5.57;84.51;102278.50;5052142;28;20033;-86
2022/09/22 05:54:32;;;;;;;8.02;5.43;;;;;;;5.56;84.56;102287.06;5053872;28;20025;-86
2022/09/22 05:56:57;;;;;;;7.80;5.03;;;;;;;5.56;84.35;102287.06;5053693;28;20164;-86
2022/09/22 05:59:22;;;;;;;7.90;5.10;;;;;;;5.56;84.29;102285.38;5054244;28;20021;-86
2022/09/22 06:01:47;;;;;;;7.40;4.75;;;;;;;5.57;84.33;102291.38;5055216;28;20079;-86
2022/09/22 06:04:13;;;;;;;6.65;4.15;;;;;;;5.54;84.30;102284.47;5055455;28;20047;-86
2022/09/22 06:06:38;;;;;;;6.30;4.38;;;;;;;5.53;84.44;102281.81;5053821;28;20029;-86
2022/09/22 06:09:03;;;;;;;5.63;4.00;;;;;;;5.52;84.75;102285.22;5055010;28;20021;-86
2022/09/22 06:11:29;;;;;;;6.15;4.07;;;;;;;5.51;84.79;102291.22;5054902;28;20098;-86
2022/09/22 06:13:54;;;;;;;6.07;4.50;;;;;;;5.54;84.93;102294.75;5054136;28;20021;-86
2022/09/22 06:16:19;;;;;;;6.45;4.10;;;;;;;5.57;84.97;102288.81;5054149;28;20132;-86
2022/09/22 06:18:48;;;;;;;6.35;4.13;;;;;;;5.60;85.23;102290.59;5053383;28;20104;-86
2022/09/22 06:21:15;;;;;;;5.28;3.90;;;;;;;5.64;85.17;102292.44;5052826;28;20381;-86
2022/09/22 06:23:41;;;;;;;4.85;3.80;;;;;;;5.68;84.99;102297.72;5053540;28;20020;-85
2022/09/22 06:26:06;;;;;;;5.50;3.43;;;;;;;5.72;85.33;102291.84;5053127;28;20477;-86
2022/09/22 06:28:32;;;;;;;5.18;3.60;;;;;;;5.76;86.48;102281.59;5052560;28;20108;-86
2022/09/22 06:30:59;;;;;;;5.53;3.78;;;;;;;5.81;85.37;102288.63;5053236;28;20067;-86
2022/09/22 06:33:25;;;;;;;6.72;4.22;;;;;;;5.91;85.80;102286.31;5053144;28;20033;-86
2022/09/22 06:35:50;;;;;;;6.27;4.57;;;;;;;6.04;86.19;102283.25;5052696;28;20449;-86
2022/09/22 06:38:16;;;;;;;6.57;4.47;;;;;;;6.55;88.73;102283.69;5053347;28;20059;-86
2022/09/22 06:40:42;;;;;;;5.15;3.85;;;;;;;7.80;87.71;102270.06;5052343;28;20024;-86
2022/09/22 06:43:14;;;;;;;5.07;3.28;;;;;;;10.05;88.30;102276.78;5053336;28;20057;-87
2022/09/22 06:45:41;;;;;;;3.05;2.75;;;;;;;12.41;84.19;102278.88;5053417;28;20021;-86
2022/09/22 06:48:09;;;;;;;3.83;2.72;;;;;;;14.56;79.48;102279.69;5052617;28;20021;-86
2022/09/22 06:50:34;;;;;;;4.30;3.15;;;;;;;16.28;73.61;102277.59;5053344;28;20362;-86
2022/09/22 06:53:01;;;;;;;4.27;3.10;;;;;;;17.61;69.82;102284.72;5052890;28;20083;-86
2022/09/22 06:55:28;;;;;;;4.82;3.80;;;;;;;18.47;65.95;102275.72;5052285;28;20469;-86
2022/09/22 06:57:54;;;;;;;;;;;;;;;18.75;63.33;102282.91;5053491;28;20424;-86
2022/09/22 07:00:19;;;;;;;4.90;3.70;;;;;;;18.67;62.26;102283.97;5052811;28;19916;-86
2022/09/22 07:02:45;;;;;;;4.03;3.30;;;;;;;17.94;61.56;102286.63;5051986;28;20025;-85
2022/09/22 07:05:11;;;;;;;5.20;3.80;;;;;;;16.60;59.82;102273.56;5056640;28;20036;-86
2022/09/22 07:07:36;;;;;;;5.27;3.93;;;;;;;15.13;65.70;102276.53;5057194;28;20040;-86
2022/09/22 07:10:02;;;;;;;6.53;4.40;;;;;;;14.04;68.54;102273.13;5056092;28;20032;-86
2022/09/22 07:12:27;;;;;;;6.63;4.53;;;;;;;13.18;69.23;102277.88;5056786;28;20028;-85
2022/09/22 07:14:55;;;;;;;5.43;4.00;;;;;;;12.46;70.43;102277.13;5056706;28;20461;-86
2022/09/22 07:17:20;;;;;;;5.53;3.97;;;;;;;11.86;71.64;102277.91;5056138;28;20079;-86
2022/09/22 07:19:46;;;;;;;5.40;3.47;;;;;;;11.41;73.34;102279.50;5056710;28;20428;-86
2022/09/22 07:22:38;;;;;;;5.80;4.20;;;;;;;11.04;74.82;102267.19;5055883;28;20032;-86
2022/09/22 07:25:02;;;;;;;5.43;3.92;;;;;;;10.77;75.44;102276.53;5055212;28;20039;-86
2022/09/22 07:27:27;;;;;;;4.68;3.45;;;;;;;10.57;75.67;102276.41;5056709;28;20538;-85
2022/09/22 07:29:53;;;;;;;10.87;6.10;;;;;;;10.38;78.03;102265.00;5055655;28;20100;-85
2022/09/22 07:32:20;;;;;;;10.10;6.20;;;;;;;10.19;77.37;102276.91;5056403;28;20017;-86
2022/09/22 07:34:58;;;;;;;14.32;8.30;;;;;;;10.05;79.06;102272.44;5046579;28;20039;-86
2022/09/22 07:37:23;;;;;;;11.80;7.30;;;;;;;9.99;79.21;102269.81;5055509;28;20021;-86
2022/09/22 07:39:49;;;;;;;11.00;6.70;;;;;;;9.95;79.09;102268.03;5056336;28;20028;-86
2022/09/22 07:42:15;;;;;;;10.27;6.37;;;;;;;9.94;79.40;102270.63;5055966;28;20032;-86
2022/09/22 07:45:11;;;;;;;8.50;5.25;;;;;;;9.96;79.68;102264.59;5055467;28;20043;-86
2022/09/22 07:50:21;;;;;;;9.75;6.30;;;;;;;10.12;80.27;102275.13;5056765;28;20384;-86
2022/09/22 07:52:51;;;;;;;9.95;6.40;;;;;;;10.18;81.27;102268.28;5061245;28;20098;-86
2022/09/22 07:55:16;;;;;;;9.68;5.82;;;;;;;10.27;80.84;102275.25;5076129;28;20028;-86
2022/09/22 07:57:42;;;;;;;7.23;4.90;;;;;;;10.33;80.08;102272.72;5075875;28;20461;-86
2022/09/22 08:00:08;;;;;;;6.47;4.83;;;;;;;10.39;80.52;102266.75;5075214;28;20032;-86
2022/09/22 08:02:33;;;;;;;9.50;6.20;;;;;;;10.46;81.65;102275.47;5076065;28;20024;-86
2022/09/22 08:05:01;;;;;;;8.70;5.30;;;;;;;10.55;80.68;102259.94;5075312;28;20048;-86
2022/09/22 08:07:30;;;;;;;10.20;5.60;;;;;;;10.67;81.44;102269.53;5076068;28;20024;-86
2022/09/22 08:09:55;;;;;;;8.18;5.40;;;;;;;10.77;80.02;102258.34;5075865;28;20523;-86
2022/09/22 08:12:20;;;;;;;10.03;6.03;;;;;;;10.85;81.41;102252.34;5075239;28;20020;-86
2022/09/22 08:14:46;;;;;;;10.57;6.57;;;;;;;10.93;80.29;102259.31;5075253;28;20027;-86
2022/09/22 08:17:11;;;;;;;7.53;5.60;;;;;;;11.02;80.34;102260.25;5075168;28;20334;-86
2022/09/22 08:19:37;;;;;;;6.83;4.40;;;;;;;11.12;80.11;102255.09;5074800;28;20082;-86
2022/09/22 08:22:03;;;;;;;5.33;3.77;;;;;;;11.22;80.07;102258.63;5075755;28;20024;-86
2022/09/22 08:24:34;;;;;;;6.03;4.10;;;;;;;11.32;80.17;102254.31;5075571;28;20103;-86
2022/09/22 08:26:59;;;;;;;5.82;3.80;;;;;;;11.44;80.21;102249.16;5074771;28;20027;-86
2022/09/22 08:29:25;;;;;;;9.83;5.87;;;;;;;11.55;79.60;102248.34;5075499;28;20028;-87
2022/09/22 08:31:51;;;;;;;9.00;6.10;;;;;;;11.73;80.07;102250.13;5075322;28;20025;-87
2022/09/22 08:34:16;;;;;;;8.13;5.40;;;;;;;11.86;79.46;102241.47;5074888;28;20024;-87
2022/09/22 08:36:45;;;;;;;7.10;4.70;;;;;;;12.00;79.58;102240.66;5075423;28;20461;-86
2022/09/22 08:39:10;;;;;;;10.30;5.93;;;;;;;12.16;78.45;102244.16;5075475;28;20021;-86
2022/09/22 08:42:07;;;;;;;7.70;5.30;;;;;;;12.30;78.80;102247.63;5074241;28;20020;-86
2022/09/22 08:44:55;;;;;;;10.10;6.00;;;;;;;12.49;78.29;102245.00;5064009;28;20060;-86
2022/09/22 08:53:10;;;;;;;11.32;5.72;;;;;;;12.97;77.51;102248.41;5066971;28;20068;-86
2022/09/22 08:55:41;;;;;;;7.00;4.47;;;;;;;13.11;77.45;102242.28;5054111;28;20063;-86
2022/09/22 08:58:36;;;;;;;7.43;4.50;;;;;;;13.29;75.66;102250.03;5055048;28;20025;-87
2022/09/22 09:01:48;;;;;;;9.27;6.05;;;;;;;13.47;75.88;102243.03;5055039;28;20021;-87
2022/09/22 09:05:01;;;;;;;7.65;5.20;;;;;;;13.64;76.02;102252.50;5008287;28;20068;-86
2022/09/22 09:07:57;;;;;;;4.97;3.78;;;;;;;13.83;76.47;102253.28;5055118;28;20052;-86
2022/09/22 09:10:53;;;;;;;4.18;3.35;;;;;;;14.01;76.16;102255.75;5053853;28;20029;-86
2022/09/22 09:13:43;;;;;;;9.40;5.50;;;;;;;14.15;71.98;102253.03;5054757;28;20059;-86
2022/09/22 09:16:46;;;;;;;10.18;6.90;;;;;;;14.33;73.05;102256.38;5012927;28;20045;-86
2022/09/22 09:19:16;;;;;;;11.52;6.53;;;;;;;14.50;72.23;102261.47;5054607;28;20067;-86
2022/09/22 09:21:52;;;;;;;7.53;5.05;;;;;;;14.62;72.50;102250.03;5054758;28;20104;-86
2022/09/22 09:24:28;;;;;;;7.55;5.00;;;;;;;14.77;72.88;102244.69;5053899;28;20033;-86
2022/09/22 09:26:57;;;;;;;4.93;3.55;;;;;;;14.93;72.87;102245.38;5054663;28;20021;-86
2022/09/22 09:29:27;;;;;;;4.90;3.67;;;;;;;15.10;69.42;102249.53;5053677;28;20112;-86
2022/09/22 09:31:55;;;;;;;5.43;3.92;;;;;;;15.25;71.80;102245.91;5054499;28;20017;-86
2022/09/22 09:34:27;;;;;;;4.22;3.03;;;;;;;15.35;71.10;102249.25;5054336;28;20021;-86
2022/09/22 09:37:10;;;;;;;7.38;4.90;;;;;;;15.48;68.68;102250.81;5053492;28;20040;-86
2022/09/22 09:39:39;;;;;;;6.28;4.57;;;;;;;15.61;68.42;102246.28;5047577;28;20027;-86
2022/09/22 09:42:28;;;;;;;8.32;4.70;;;;;;;15.71;67.62;102242.63;5053884;28;20032;-86
2022/09/22 09:44:56;;;;;;;5.38;3.80;;;;;;;15.85;69.52;102249.44;5053425;28;20033;-86
2022/09/22 09:47:39;;;;;;;4.80;3.70;;;;;;;15.98;67.34;102247.53;5053940;28;20021;-86
2022/09/22 09:50:05;;;;;;;7.35;4.65;;;;;;;16.07;65.33;102250.00;5053944;28;20036;-86
2022/09/22 09:52:36;;;;;;;5.30;4.00;;;;;;;16.14;67.12;102245.53;5052913;28;20386;-86
2022/09/22 09:55:01;;;;;;;6.53;4.80;;;;;;;16.23;60.75;102242.75;5053984;28;20029;-86
2022/09/22 09:57:28;;;;;;;5.43;3.60;;;;;;;16.35;66.42;102242.56;5053268;28;20465;-86
2022/09/22 10:00:32;;;;;;;4.30;3.28;;;;;;;16.54;61.20;102238.75;5053973;28;20017;-86
2022/09/22 10:03:15;;;;;;;3.00;2.70;;;;;;;16.67;64.44;102237.59;5053880;28;20120;-86
2022/09/22 10:05:42;;;;;;;2.70;2.50;;;;;;;16.78;66.77;102226.94;5053067;28;20428;-86
2022/09/22 10:08:18;;;;;;;2.80;2.40;;;;;;;16.92;63.61;102234.50;5053744;28;20025;-86
2022/09/22 10:10:44;;;;;;;2.00;1.80;;;;;;;17.05;66.00;102230.78;5053855;28;20377;-85
2022/09/22 10:13:10;;;;;;;3.53;2.40;;;;;;;17.13;60.17;102226.25;5052770;28;20021;-85
2022/09/22 10:15:37;;;;;;;2.87;2.47;;;;;;;17.21;61.44;102228.72;5053284;28;20087;-85
2022/09/22 10:18:23;;;;;;;4.60;3.08;;;;;;;17.32;58.36;102227.63;5053145;28;20028;-86
2022/09/22 10:21:06;;;;;;;3.92;3.10;;;;;;;17.43;62.29;102230.88;5052517;28;20032;-86
2022/09/22 10:23:32;;;;;;;2.58;2.38;;;;;;;17.52;57.88;102221.94;5053462;28;20104;-85
2022/09/22 10:26:21;;;;;;;1.85;1.75;;;;;;;17.63;61.04;102221.69;5052566;28;20039;-86
2022/09/22 10:29:11;;;;;;;1.90;1.80;;;;;;;17.77;58.90;102222.22;5047410;28;20029;-85
2022/09/22 10:31:37;;;;;;;2.30;2.10;;;;;;;17.79;54.75;102219.59;5053456;28;20033;-86
2022/09/22 10:34:04;;;;;;;2.42;1.80;;;;;;;17.83;57.47;102218.59;5052277;28;20051;-86
2022/09/22 10:36:32;;;;;;;1.85;1.75;;;;;;;17.85;50.72;102212.38;5053485;28;20033;-86
2022/09/22 10:38:57;;;;;;;2.05;1.73;;;;;;;17.91;60.17;102214.00;5052838;28;20033;-86
2022/09/22 10:41:27;;;;;;;1.67;1.57;;;;;;;17.99;59.10;102203.34;5052856;28;20074;-85
2022/09/22 10:43:58;;;;;;;1.70;1.60;;;;;;;18.12;58.36;102204.78;5053505;28;20377;-86
2022/09/22 10:46:36;;;;;;;1.30;1.20;;;;;;;18.16;59.29;102197.66;5053417;28;20026;-85
2022/09/22 10:49:44;;;;;;;1.00;0.93;;;;;;;18.18;58.21;102201.13;5052199;28;20021;-85
2022/09/22 10:52:18;;;;;;;2.25;1.80;;;;;;;18.20;51.97;102192.28;5053810;28;20044;-85
2022/09/22 10:55:03;;;;;;;1.90;1.80;;;;;;;18.24;53.51;102187.81;5072314;28;20021;-86
2022/09/22 10:58:02;;;;;;;1.60;1.50;;;;;;;18.37;55.94;102191.00;5073268;28;20029;-86
2022/09/22 11:00:27;;;;;;;1.30;1.20;;;;;;;18.51;58.03;102186.25;5073282;28;20032;-86
2022/09/22 11:03:17;;;;;;;1.88;1.23;;;;;;;18.61;57.08;102189.47;5072262;28;20112;-86
2022/09/22 11:12:16;;;;;;;1.20;1.15;;;;;;;18.82;53.71;102180.13;5001408;28;20049;-85
2022/09/22 11:14:47;;;;;;;1.73;1.60;;;;;;;18.85;54.73;102181.78;5072860;28;20028;-86
2022/09/22 11:17:37;;;;;;;2.55;1.90;;;;;;;18.90;48.73;102189.53;5072612;28;20025;-86
2022/09/22 11:20:02;;;;;;;2.08;1.80;;;;;;;18.86;53.04;102174.78;5073032;28;20131;-85
2022/09/22 11:22:49;;;;;;;1.40;1.30;;;;;;;18.92;51.54;102175.44;5072039;28;20076;-85
2022/09/22 11:25:54;;;;;;;2.05;1.80;;;;;;;18.98;50.86;102183.19;5059771;28;20041;-85
2022/09/22 11:28:45;;;;;;;1.50;1.40;;;;;;;19.05;54.12;102178.63;5072731;28;20119;-86
2022/09/22 11:31:30;;;;;;;1.20;1.20;;;;;;;18.90;54.61;102174.66;5071869;28;20405;-85
2022/09/22 11:34:17;;;;;;;1.37;1.27;;;;;;;18.89;50.38;102167.66;5073362;28;20029;-88
2022/09/22 11:36:57;;;;;;;1.48;1.38;;;;;;;19.00;53.05;102167.34;5010217;28;20133;-82
2022/09/22 11:43:25;;;;;;;1.45;1.35;;;;;;;19.23;50.89;102161.41;5012133;28;20037;-89
2022/09/22 11:46:21;;;;;;;2.30;1.50;;;;;;;19.15;50.49;102160.75;5011591;28;20041;-92
2022/09/22 11:48:49;;;;;;;1.40;1.30;;;;;;;19.12;53.02;102151.19;5063173;28;20491;-94
2022/09/22 11:54:48;;;;;;;1.10;1.10;;;;;;;19.15;52.41;102147.59;5002431;28;20513;-91
2022/09/22 11:57:38;;;;;;;;;;;;;;;;;;;;;
2022/09/22 12:00:30;;;;;;;1.02;1.00;;;;;;;18.81;49.32;102133.69;5043404;28;20472;-84
2022/09/22 12:05:52;;;;;;;0.80;0.80;;;;;;;18.46;52.79;102125.03;5075226;28;20511;-83
2022/09/22 12:08:21;;;;;;;0.80;0.80;;;;;;;18.44;54.01;102126.84;5075881;28;20024;-85
2022/09/22 12:10:48;;;;;;;0.80;0.80;;;;;;;18.51;54.21;102114.38;5075476;28;20036;-92
2022/09/22 12:13:26;;;;;;;0.88;0.88;;;;;;;18.60;50.65;102108.00;5076618;28;20048;-94
2022/09/22 12:15:57;;;;;;;0.52;0.52;;;;;;;18.66;51.65;102111.34;5076726;28;20027;-94
2022/09/22 12:18:45;;;;;;;2.83;1.98;;;;;;;18.63;47.16;102106.16;5076035;28;20036;-93